Time,TemperatureF,DewpointF,PressureIn,WindDirection,WindDirectionDegrees,WindSpeedMPH,WindSpeedGustMPH,Humidity,HourlyPrecipIn,Conditions,Clouds,dailyrainin,SoftwareType,DateUTC
2013-05-21 00:03:00,53.0,52.0,30.01,ESE,110,0.0,1.0,96,0.00,,,0.63,,2013-05-21 04:03:00,
2013-05-21 00:13:00,53.0,52.0,30.01,ESE,110,0.0,1.0,96,0.00,,,0.63,,2013-05-21 04:13:00,
2013-05-21 00:23:00,53.0,52.0,30.01,SE,124,0.0,2.0,96,0.00,,,0.63,,2013-05-21 04:23:00,
2013-05-21 00:33:00,53.0,52.0,30.02,ENE,61,0.0,1.0,96,0.00,,,0.63,,2013-05-21 04:33:00,
2013-05-21 00:42:00,53.0,52.0,30.02,ENE,61,0.0,1.0,96,0.00,,,0.63,,2013-05-21 04:42:00,
2013-05-21 00:53:00,53.0,52.0,30.02,East,98,0.0,1.0,96,0.00,,,0.63,,2013-05-21 04:53:00,
2013-05-21 01:02:00,52.0,51.0,30.02,East,82,0.0,1.0,95,0.00,,,0.63,,2013-05-21 05:02:00,
2013-05-21 01:12:00,52.0,51.0,30.02,East,82,0.0,1.0,95,0.00,,,0.63,,2013-05-21 05:12:00,
2013-05-21 01:22:00,52.0,51.0,30.02,NNE,22,0.0,2.0,96,0.00,,,0.63,,2013-05-21 05:22:00,
2013-05-21 01:32:00,52.0,51.0,30.01,NNE,26,0.0,0.0,95,0.00,,,0.63,,2013-05-21 05:32:00,
2013-05-21 01:42:00,52.0,51.0,30.01,NNE,26,0.0,0.0,96,0.00,,,0.63,,2013-05-21 05:42:00,
2013-05-21 01:52:00,52.0,51.0,30.01,NNE,26,0.0,0.0,96,0.00,,,0.63,,2013-05-21 05:52:00,
2013-05-21 02:02:00,52.0,51.0,30.01,NNE,26,0.0,0.0,96,0.00,,,0.63,,2013-05-21 06:02:00,
2013-05-21 02:12:00,52.0,51.0,30.01,NNE,26,0.0,0.0,96,0.00,,,0.63,,2013-05-21 06:12:00,
2013-05-21 02:21:00,52.0,51.0,30.01,NNE,26,0.0,0.0,96,0.00,,,0.63,,2013-05-21 06:21:00,
2013-05-21 02:32:00,52.0,51.0,30.01,NNE,26,0.0,0.0,96,0.00,,,0.63,,2013-05-21 06:32:00,
2013-05-21 02:42:00,52.0,51.0,30.01,NNE,26,0.0,0.0,96,0.00,,,0.63,,2013-05-21 06:42:00,
2013-05-21 02:52:00,52.0,51.0,30.00,NNE,26,0.0,0.0,96,0.00,,,0.63,,2013-05-21 06:52:00,
2013-05-21 03:01:00,52.0,51.0,30.00,NNE,26,0.0,0.0,96,0.00,,,0.63,,2013-05-21 07:01:00,
2013-05-21 03:11:00,52.0,51.0,30.00,NNE,26,0.0,0.0,96,0.00,,,0.63,,2013-05-21 07:11:00,
2013-05-21 03:22:00,52.0,51.0,30.01,NNE,26,0.0,0.0,96,0.00,,,0.60,,2013-05-21 07:22:00,
2013-05-21 03:31:00,52.0,51.0,30.01,NNE,26,0.0,0.0,96,0.00,,,0.60,,2013-05-21 07:31:00,
2013-05-21 03:41:00,52.0,51.0,30.01,NNE,26,0.0,0.0,96,0.00,,,0.60,,2013-05-21 07:41:00,
2013-05-21 03:52:00,52.0,51.0,30.00,SW,221,1.0,2.0,96,0.00,,,0.60,,2013-05-21 07:52:00,
2013-05-21 04:02:00,52.0,51.0,30.00,SW,223,0.0,0.0,96,0.00,,,0.60,,2013-05-21 08:02:00,
2013-05-21 04:11:00,52.0,51.0,30.00,SW,223,0.0,0.0,96,0.00,,,0.60,,2013-05-21 08:11:00,
2013-05-21 04:21:00,52.0,51.0,30.00,SW,221,0.0,0.0,96,0.00,,,0.53,,2013-05-21 08:21:00,
2013-05-21 04:31:00,52.0,51.0,29.99,WNW,299,0.0,0.0,96,0.00,,,0.53,,2013-05-21 08:31:00,
2013-05-21 04:42:00,52.0,51.0,29.98,WNW,300,0.0,1.0,96,0.00,,,0.53,,2013-05-21 08:42:00,
2013-05-21 04:52:00,52.0,51.0,29.98,WNW,300,0.0,1.0,96,0.00,,,0.53,,2013-05-21 08:52:00,
2013-05-21 05:01:00,52.0,51.0,29.99,South,187,0.0,1.0,97,0.00,,,0.53,,2013-05-21 09:01:00,
2013-05-21 05:11:00,52.0,51.0,29.99,South,187,0.0,1.0,97,0.00,,,0.53,,2013-05-21 09:11:00,
2013-05-21 05:21:00,52.0,51.0,29.98,South,184,0.0,1.0,97,0.00,,,0.41,,2013-05-21 09:21:00,
2013-05-21 05:33:00,52.0,51.0,29.98,South,185,0.0,1.0,97,0.00,,,0.41,,2013-05-21 09:33:00,
2013-05-21 05:42:00,52.0,51.0,29.98,South,185,0.0,1.0,97,0.00,,,0.41,,2013-05-21 09:42:00,
2013-05-21 05:53:00,51.0,50.0,29.99,NNW,333,0.0,2.0,97,0.00,,,0.41,,2013-05-21 09:53:00,
2013-05-21 06:02:00,51.0,50.0,30.00,NNW,336,0.0,1.0,97,0.00,,,0.41,,2013-05-21 10:02:00,
2013-05-21 06:12:00,51.0,50.0,30.00,NNW,336,0.0,1.0,97,0.00,,,0.41,,2013-05-21 10:12:00,
2013-05-21 06:22:00,51.0,50.0,30.00,NNW,341,0.0,1.0,97,0.00,,,0.25,,2013-05-21 10:22:00,
2013-05-21 06:32:00,51.0,50.0,30.00,North,357,0.0,1.0,97,0.00,,,0.25,,2013-05-21 10:32:00,
2013-05-21 06:42:00,51.0,50.0,30.00,North,357,0.0,1.0,97,0.00,,,0.25,,2013-05-21 10:42:00,
2013-05-21 06:52:00,51.0,50.0,30.01,ENE,58,0.0,1.0,97,0.00,,,0.25,,2013-05-21 10:52:00,
2013-05-21 07:02:00,51.0,50.0,30.01,WSW,248,0.0,2.0,96,0.00,,,0.25,,2013-05-21 11:02:00,
2013-05-21 07:12:00,51.0,50.0,30.01,WSW,248,0.0,2.0,96,0.00,,,0.25,,2013-05-21 11:12:00,
2013-05-21 07:22:00,51.0,50.0,30.01,SE,131,0.0,1.0,96,0.00,,,0.15,,2013-05-21 11:22:00,
2013-05-21 07:32:00,51.0,50.0,30.00,SSW,201,1.0,4.0,96,0.00,,,0.15,,2013-05-21 11:32:00,
2013-05-21 07:42:00,51.0,50.0,30.00,SSW,201,1.0,4.0,96,0.00,,,0.15,,2013-05-21 11:42:00,
2013-05-21 07:52:00,51.0,50.0,30.00,NNE,18,0.0,2.0,95,0.00,,,0.15,,2013-05-21 11:52:00,
2013-05-21 08:01:00,51.0,50.0,30.01,NNW,339,0.0,1.0,95,0.00,,,0.15,,2013-05-21 12:01:00,
2013-05-21 08:11:00,51.0,50.0,30.01,NNW,339,0.0,1.0,95,0.00,,,0.15,,2013-05-21 12:11:00,
2013-05-21 08:21:00,51.0,50.0,30.01,NNE,27,0.0,1.0,95,0.00,,,0.08,,2013-05-21 12:21:00,
2013-05-21 08:32:00,50.0,49.0,29.99,North,9,2.0,6.0,95,0.00,,,0.08,,2013-05-21 12:32:00,
2013-05-21 08:42:00,50.0,49.0,29.99,North,9,2.0,6.0,95,0.00,,,0.08,,2013-05-21 12:42:00,
2013-05-21 08:52:00,50.0,49.0,30.01,NNW,346,0.0,3.0,95,0.00,,,0.08,,2013-05-21 12:52:00,
2013-05-21 09:01:00,50.0,49.0,30.03,SE,135,0.0,2.0,95,0.00,,,0.08,,2013-05-21 13:01:00,
2013-05-21 09:12:00,50.0,49.0,30.03,SE,135,0.0,2.0,95,0.00,,,0.08,,2013-05-21 13:12:00,
2013-05-21 09:22:00,50.0,49.0,30.02,NE,46,1.0,2.0,95,0.00,,,0.04,,2013-05-21 13:22:00,
2013-05-21 09:32:00,50.0,49.0,30.00,East,97,2.0,7.0,96,0.01,,,0.05,,2013-05-21 13:32:00,
2013-05-21 09:42:00,50.0,49.0,30.00,East,97,2.0,7.0,96,0.01,,,0.05,,2013-05-21 13:42:00,
2013-05-21 09:52:00,50.0,49.0,30.03,SSE,153,1.0,4.0,95,0.02,,,0.06,,2013-05-21 13:52:00,
2013-05-21 10:01:00,50.0,49.0,30.03,NW,321,0.0,3.0,96,0.02,,,0.06,,2013-05-21 14:01:00,
2013-05-21 10:11:00,50.0,49.0,30.03,NW,321,0.0,3.0,96,0.02,,,0.06,,2013-05-21 14:11:00,
2013-05-21 10:21:00,51.0,50.0,30.02,North,4,0.0,1.0,96,0.03,,,0.04,,2013-05-21 14:21:00,
2013-05-21 10:32:00,50.0,49.0,30.02,NNW,337,1.0,3.0,96,0.02,,,0.04,,2013-05-21 14:32:00,
2013-05-21 10:42:00,50.0,49.0,30.02,NNW,337,1.0,3.0,96,0.02,,,0.04,,2013-05-21 14:42:00,
2013-05-21 10:52:00,51.0,50.0,30.03,North,8,1.0,3.0,96,0.01,,,0.04,,2013-05-21 14:52:00,
2013-05-21 11:01:00,51.0,50.0,30.03,NNE,32,0.0,1.0,95,0.02,,,0.05,,2013-05-21 15:01:00,
2013-05-21 11:11:00,51.0,50.0,30.03,NNE,32,0.0,1.0,95,0.02,,,0.05,,2013-05-21 15:11:00,
2013-05-21 11:21:00,51.0,50.0,30.03,NNW,332,0.0,2.0,95,0.02,,,0.05,,2013-05-21 15:21:00,
2013-05-21 11:33:00,51.0,50.0,30.05,SE,146,0.0,1.0,95,0.03,,,0.06,,2013-05-21 15:33:00,
2013-05-21 11:42:00,51.0,50.0,30.05,South,186,0.0,1.0,95,0.05,,,0.08,,2013-05-21 15:42:00,
2013-05-21 11:53:00,51.0,50.0,30.05,South,186,0.0,1.0,95,0.05,,,0.08,,2013-05-21 15:53:00,
2013-05-21 12:03:00,51.0,50.0,30.07,SSW,193,0.0,2.0,95,0.05,,,0.09,,2013-05-21 16:03:00,
2013-05-21 12:13:00,51.0,50.0,30.07,SSW,193,0.0,2.0,95,0.05,,,0.09,,2013-05-21 16:13:00,
2013-05-21 12:23:00,51.0,50.0,30.06,NE,56,0.0,2.0,96,0.06,,,0.11,,2013-05-21 16:23:00,
2013-05-21 12:32:00,51.0,50.0,30.05,NE,41,0.0,2.0,96,0.06,,,0.12,,2013-05-21 16:32:00,
2013-05-21 12:42:00,51.0,50.0,30.05,ENE,58,0.0,3.0,96,0.04,,,0.12,,2013-05-21 16:42:00,
2013-05-21 12:53:00,51.0,50.0,30.05,ENE,58,0.0,3.0,96,0.04,,,0.12,,2013-05-21 16:53:00,
2013-05-21 13:02:00,51.0,50.0,30.04,NNE,16,0.0,2.0,96,0.03,,,0.12,,2013-05-21 17:02:00,
2013-05-21 13:12:00,51.0,50.0,30.04,NNE,16,0.0,2.0,96,0.03,,,0.12,,2013-05-21 17:12:00,
2013-05-21 13:23:00,51.0,50.0,30.04,NNE,32,0.0,2.0,96,0.01,,,0.12,,2013-05-21 17:23:00,
2013-05-21 13:33:00,51.0,50.0,30.05,East,98,1.0,3.0,95,0.00,,,0.12,,2013-05-21 17:33:00,
2013-05-21 13:43:00,51.0,50.0,30.05,NNE,32,0.0,2.0,96,0.00,,,0.12,,2013-05-21 17:43:00,
2013-05-21 13:52:00,51.0,50.0,30.05,NNE,32,0.0,2.0,96,0.00,,,0.12,,2013-05-21 17:52:00,
2013-05-21 14:02:00,51.0,50.0,30.04,NNE,23,0.0,1.0,96,0.00,,,0.12,,2013-05-21 18:02:00,
2013-05-21 14:12:00,51.0,50.0,30.04,NNE,23,0.0,1.0,96,0.00,,,0.12,,2013-05-21 18:12:00,
2013-05-21 14:22:00,51.0,50.0,30.04,ENE,67,0.0,1.0,96,0.01,,,0.13,,2013-05-21 18:22:00,
2013-05-21 14:32:00,51.0,50.0,30.04,NNW,347,0.0,2.0,96,0.01,,,0.13,,2013-05-21 18:32:00,
2013-05-21 14:42:00,51.0,50.0,30.05,NE,39,1.0,2.0,95,0.01,,,0.13,,2013-05-21 18:42:00,
2013-05-21 14:52:00,51.0,50.0,30.05,NE,39,1.0,2.0,95,0.01,,,0.13,,2013-05-21 18:52:00,
2013-05-21 15:01:00,51.0,50.0,30.05,East,92,1.0,3.0,95,0.01,,,0.13,,2013-05-21 19:01:00,
2013-05-21 15:11:00,51.0,50.0,30.05,East,92,1.0,3.0,95,0.01,,,0.13,,2013-05-21 19:11:00,
2013-05-21 15:21:00,51.0,50.0,30.05,East,81,1.0,3.0,95,0.00,,,0.13,,2013-05-21 19:21:00,
2013-05-21 15:32:00,52.0,51.0,30.05,ENE,63,0.0,3.0,95,0.00,,,0.13,,2013-05-21 19:32:00,
2013-05-21 15:42:00,52.0,51.0,30.05,ENE,63,0.0,3.0,95,0.00,,,0.13,,2013-05-21 19:42:00,
2013-05-21 15:52:00,52.0,51.0,30.05,North,1,0.0,2.0,96,0.00,,,0.13,,2013-05-21 19:52:00,
2013-05-21 16:03:00,52.0,51.0,30.04,NNE,12,0.0,3.0,96,0.00,,,0.13,,2013-05-21 20:03:00,
2013-05-21 16:11:00,52.0,51.0,30.04,NNE,12,0.0,3.0,96,0.00,,,0.13,,2013-05-21 20:11:00,
2013-05-21 16:22:00,52.0,50.0,30.03,NNE,20,2.0,4.0,94,0.00,,,0.13,,2013-05-21 20:22:00,
2013-05-21 16:32:00,53.0,52.0,30.03,NE,49,0.0,1.0,95,0.00,,,0.13,,2013-05-21 20:32:00,
2013-05-21 16:42:00,53.0,52.0,30.03,NE,49,0.0,1.0,95,0.00,,,0.13,,2013-05-21 20:42:00,
2013-05-21 16:52:00,53.0,51.0,30.02,NNW,345,0.0,2.0,94,0.00,,,0.13,,2013-05-21 20:52:00,
2013-05-21 17:02:00,53.0,51.0,30.02,SSW,194,0.0,3.0,93,0.00,,,0.13,,2013-05-21 21:02:00,
2013-05-21 17:11:00,53.0,51.0,30.02,SSW,194,0.0,3.0,93,0.00,,,0.13,,2013-05-21 21:11:00,
2013-05-21 17:22:00,53.0,51.0,30.01,WSW,257,0.0,4.0,92,0.00,,,0.13,,2013-05-21 21:22:00,
2013-05-21 17:33:00,53.0,51.0,30.01,SW,217,0.0,3.0,92,0.00,,,0.13,,2013-05-21 21:33:00,
2013-05-21 17:43:00,53.0,51.0,30.01,SW,217,0.0,3.0,92,0.00,,,0.13,,2013-05-21 21:43:00,
2013-05-21 17:54:00,53.0,51.0,30.02,NNW,341,1.0,3.0,93,0.00,,,0.13,,2013-05-21 21:54:00,
2013-05-21 18:02:00,53.0,51.0,30.03,SW,227,0.0,1.0,92,0.00,,,0.13,,2013-05-21 22:02:00,
2013-05-21 18:12:00,53.0,51.0,30.03,SW,227,0.0,1.0,92,0.00,,,0.13,,2013-05-21 22:12:00,
2013-05-21 18:23:00,53.0,51.0,30.04,SW,220,0.0,0.0,93,0.00,,,0.13,,2013-05-21 22:23:00,
2013-05-21 18:33:00,53.0,51.0,30.03,ENE,61,1.0,3.0,92,0.00,,,0.13,,2013-05-21 22:33:00,
2013-05-21 18:42:00,53.0,51.0,30.03,ENE,61,1.0,3.0,92,0.00,,,0.13,,2013-05-21 22:42:00,
2013-05-21 18:53:00,53.0,50.0,30.05,East,85,0.0,1.0,91,0.00,,,0.13,,2013-05-21 22:53:00,
2013-05-21 19:02:00,53.0,51.0,30.05,East,85,0.0,1.0,92,0.00,,,0.13,,2013-05-21 23:02:00,
2013-05-21 19:12:00,53.0,51.0,30.05,East,85,0.0,1.0,92,0.00,,,0.13,,2013-05-21 23:12:00,
2013-05-21 19:22:00,53.0,50.0,30.06,East,84,0.0,0.0,90,0.00,,,0.13,,2013-05-21 23:22:00,
2013-05-21 19:32:00,53.0,51.0,30.06,East,82,0.0,0.0,92,0.00,,,0.13,,2013-05-21 23:32:00,
2013-05-21 19:42:00,53.0,51.0,30.05,NNE,12,0.0,2.0,93,0.00,,,0.13,,2013-05-21 23:42:00,
2013-05-21 19:52:00,53.0,51.0,30.05,NNE,12,0.0,2.0,93,0.00,,,0.13,,2013-05-21 23:52:00,
2013-05-21 20:01:00,52.0,50.0,30.06,NE,46,0.0,2.0,94,0.00,,,0.13,,2013-05-22 00:01:00,
2013-05-21 20:11:00,52.0,50.0,30.06,NE,46,0.0,2.0,94,0.00,,,0.13,,2013-05-22 00:11:00,
2013-05-21 20:21:00,51.0,49.0,30.06,ESE,103,0.0,1.0,94,0.00,,,0.13,,2013-05-22 00:21:00,
2013-05-21 20:32:00,50.0,49.0,30.05,East,86,0.0,1.0,95,0.00,,,0.13,,2013-05-22 00:32:00,
2013-05-21 20:42:00,50.0,49.0,30.05,East,86,0.0,1.0,95,0.00,,,0.13,,2013-05-22 00:42:00,
2013-05-21 20:52:00,50.0,49.0,30.05,East,89,0.0,1.0,95,0.00,,,0.13,,2013-05-22 00:52:00,
2013-05-21 21:01:00,49.0,48.0,30.05,SSW,207,0.0,2.0,95,0.00,,,0.13,,2013-05-22 01:01:00,
2013-05-21 21:11:00,49.0,48.0,30.05,SSW,207,0.0,2.0,95,0.00,,,0.13,,2013-05-22 01:11:00,
2013-05-21 21:21:00,49.0,48.0,30.06,SSE,164,0.0,2.0,96,0.00,,,0.13,,2013-05-22 01:21:00,
2013-05-21 21:32:00,49.0,48.0,30.07,SSW,203,0.0,2.0,96,0.00,,,0.13,,2013-05-22 01:32:00,
2013-05-21 21:42:00,49.0,48.0,30.07,SSW,203,0.0,2.0,96,0.00,,,0.13,,2013-05-22 01:42:00,
2013-05-21 21:52:00,49.0,48.0,30.06,SSE,156,0.0,2.0,95,0.00,,,0.13,,2013-05-22 01:52:00,
2013-05-21 22:02:00,48.0,47.0,30.05,NE,54,0.0,1.0,96,0.00,,,0.13,,2013-05-22 02:02:00,
2013-05-21 22:11:00,48.0,47.0,30.05,NE,54,0.0,1.0,96,0.00,,,0.13,,2013-05-22 02:11:00,
2013-05-21 22:22:00,48.0,47.0,30.04,NE,39,0.0,2.0,96,0.00,,,0.13,,2013-05-22 02:22:00,
2013-05-21 22:32:00,48.0,47.0,30.05,NE,56,0.0,2.0,96,0.00,,,0.13,,2013-05-22 02:32:00,
2013-05-21 22:42:00,48.0,47.0,30.05,NW,307,0.0,1.0,96,0.00,,,0.13,,2013-05-22 02:42:00,
2013-05-21 22:52:00,48.0,47.0,30.05,NW,307,0.0,1.0,96,0.00,,,0.13,,2013-05-22 02:52:00,
2013-05-21 23:01:00,48.0,47.0,30.04,NE,39,1.0,6.0,96,0.00,,,0.13,,2013-05-22 03:01:00,
2013-05-21 23:11:00,48.0,47.0,30.04,NE,39,1.0,6.0,96,0.00,,,0.13,,2013-05-22 03:11:00,
2013-05-21 23:22:00,48.0,47.0,30.04,SE,136,0.0,2.0,96,0.00,,,0.13,,2013-05-22 03:22:00,
2013-05-21 23:33:00,48.0,47.0,30.03,NNW,328,0.0,1.0,96,0.00,,,0.13,,2013-05-22 03:33:00,
2013-05-21 23:43:00,48.0,47.0,30.04,SSW,195,0.0,2.0,96,0.00,,,0.13,,2013-05-22 03:43:00,
2013-05-21 23:53:00,48.0,47.0,30.04,SSW,195,0.0,2.0,96,0.00,,,0.13,,2013-05-22 03:53:00,